sensor_id;sensor_type;location;lat;lon;timestamp;temperature;humidity
34498;DHT22;20744;50.938;7.286;2022-10-16T00:00:56;12.20;99.90
34498;DHT22;20744;50.938;7.286;2022-10-16T00:03:23;12.20;99.90
34498;DHT22;20744;50.938;7.286;2022-10-16T00:05:50;12.20;99.90
34498;DHT22;20744;50.938;7.286;2022-10-16T00:08:17;12.20;99.90
34498;DHT22;20744;50.938;7.286;2022-10-16T00:10:44;12.20;99.90
34498;DHT22;20744;50.938;7.286;2022-10-16T00:13:11;12.20;99.90
34498;DHT22;20744;50.938;7.286;2022-10-16T00:15:39;12.20;99.90
34498;DHT22;20744;50.938;7.286;2022-10-16T00:18:08;12.20;99.90
34498;DHT22;20744;50.938;7.286;2022-10-16T00:20:35;12.20;99.90
34498;DHT22;20744;50.938;7.286;2022-10-16T00:23:03;12.20;99.90
34498;DHT22;20744;50.938;7.286;2022-10-16T00:25:30;12.20;99.90
34498;DHT22;20744;50.938;7.286;2022-10-16T00:27:59;12.20;99.90
34498;DHT22;20744;50.938;7.286;2022-10-16T00:30:26;12.20;99.90
34498;DHT22;20744;50.938;7.286;2022-10-16T00:32:56;12.20;99.90
34498;DHT22;20744;50.938;7.286;2022-10-16T00:35:23;12.20;99.90
34498;DHT22;20744;50.938;7.286;2022-10-16T00:37:50;12.20;99.90
34498;DHT22;20744;50.938;7.286;2022-10-16T00:40:17;12.20;99.90
34498;DHT22;20744;50.938;7.286;2022-10-16T00:42:43;12.20;99.90
34498;DHT22;20744;50.938;7.286;2022-10-16T00:45:10;12.10;99.90
34498;DHT22;20744;50.938;7.286;2022-10-16T00:47:40;12.10;99.90
34498;DHT22;20744;50.938;7.286;2022-10-16T00:50:10;12.10;99.90
34498;DHT22;20744;50.938;7.286;2022-10-16T00:52:44;12.10;99.90
34498;DHT22;20744;50.938;7.286;2022-10-16T00:55:12;12.10;99.90
34498;DHT22;20744;50.938;7.286;2022-10-16T00:57:40;12.10;99.90
34498;DHT22;20744;50.938;7.286;2022-10-16T01:00:11;12.00;99.90
34498;DHT22;20744;50.938;7.286;2022-10-16T01:02:38;12.00;99.90
34498;DHT22;20744;50.938;7.286;2022-10-16T01:05:07;12.00;99.90
34498;DHT22;20744;50.938;7.286;2022-10-16T01:07:41;12.00;99.90
34498;DHT22;20744;50.938;7.286;2022-10-16T01:10:26;12.00;99.90
34498;DHT22;20744;50.938;7.286;2022-10-16T01:12:59;12.00;99.90
34498;DHT22;20744;50.938;7.286;2022-10-16T01:15:30;12.00;99.90
34498;DHT22;20744;50.938;7.286;2022-10-16T01:18:03;12.10;99.90
34498;DHT22;20744;50.938;7.286;2022-10-16T01:20:36;12.00;99.90
34498;DHT22;20744;50.938;7.286;2022-10-16T01:23:14;12.00;99.90
34498;DHT22;20744;50.938;7.286;2022-10-16T01:25:59;11.90;99.90
34498;DHT22;20744;50.938;7.286;2022-10-16T01:28:40;11.90;99.90
34498;DHT22;20744;50.938;7.286;2022-10-16T01:31:09;11.90;99.90
34498;DHT22;20744;50.938;7.286;2022-10-16T01:33:41;11.90;99.90
34498;DHT22;20744;50.938;7.286;2022-10-16T20:04:53;15.20;99.90
34498;DHT22;20744;50.938;7.286;2022-10-16T20:07:21;15.20;99.90
34498;DHT22;20744;50.938;7.286;2022-10-16T20:09:48;15.20;99.90
34498;DHT22;20744;50.938;7.286;2022-10-16T20:12:15;15.30;99.90
34498;DHT22;20744;50.938;7.286;2022-10-16T20:14:42;15.20;99.90
34498;DHT22;20744;50.938;7.286;2022-10-16T20:17:09;15.20;99.90
34498;DHT22;20744;50.938;7.286;2022-10-16T20:19:38;15.20;99.90
34498;DHT22;20744;50.938;7.286;2022-10-16T20:22:05;15.20;99.90
34498;DHT22;20744;50.938;7.286;2022-10-16T20:24:33;15.20;99.90
34498;DHT22;20744;50.938;7.286;2022-10-16T20:27:00;15.20;99.90
34498;DHT22;20744;50.938;7.286;2022-10-16T20:29:27;15.20;99.90
34498;DHT22;20744;50.938;7.286;2022-10-16T20:31:54;15.20;99.90
34498;DHT22;20744;50.938;7.286;2022-10-16T20:34:21;15.20;99.90
34498;DHT22;20744;50.938;7.286;2022-10-16T20:36:48;15.20;99.90
34498;DHT22;20744;50.938;7.286;2022-10-16T20:39:15;15.20;99.90
34498;DHT22;20744;50.938;7.286;2022-10-16T20:41:43;15.10;99.90
34498;DHT22;20744;50.938;7.286;2022-10-16T20:44:10;15.10;99.90
34498;DHT22;20744;50.938;7.286;2022-10-16T20:46:37;15.00;99.90
34498;DHT22;20744;50.938;7.286;2022-10-16T20:49:04;15.00;99.90
34498;DHT22;20744;50.938;7.286;2022-10-16T20:51:31;14.90;99.90
34498;DHT22;20744;50.938;7.286;2022-10-16T20:53:59;14.90;99.90
34498;DHT22;20744;50.938;7.286;2022-10-16T20:56:28;14.90;99.90
34498;DHT22;20744;50.938;7.286;2022-10-16T20:58:56;14.80;99.90
34498;DHT22;20744;50.938;7.286;2022-10-16T21:01:28;14.80;99.90
34498;DHT22;20744;50.938;7.286;2022-10-16T21:03:56;14.80;99.90
34498;DHT22;20744;50.938;7.286;2022-10-16T21:06:24;14.70;99.90
34498;DHT22;20744;50.938;7.286;2022-10-16T21:08:51;14.70;99.90
34498;DHT22;20744;50.938;7.286;2022-10-16T21:11:20;14.60;99.90
34498;DHT22;20744;50.938;7.286;2022-10-16T21:13:47;14.70;99.90
34498;DHT22;20744;50.938;7.286;2022-10-16T21:16:15;14.70;99.90
34498;DHT22;20744;50.938;7.286;2022-10-16T21:18:42;14.70;99.90
34498;DHT22;20744;50.938;7.286;2022-10-16T21:21:10;14.70;99.90
34498;DHT22;20744;50.938;7.286;2022-10-16T21:23:37;14.60;99.90
34498;DHT22;20744;50.938;7.286;2022-10-16T21:26:04;14.60;99.90
34498;DHT22;20744;50.938;7.286;2022-10-16T21:28:31;14.60;99.90
34498;DHT22;20744;50.938;7.286;2022-10-16T21:30:58;14.60;99.90
34498;DHT22;20744;50.938;7.286;2022-10-16T21:33:28;14.60;99.90
34498;DHT22;20744;50.938;7.286;2022-10-16T21:35:54;14.60;99.90
34498;DHT22;20744;50.938;7.286;2022-10-16T21:38:26;14.50;99.90
34498;DHT22;20744;50.938;7.286;2022-10-16T21:40:52;14.50;99.90
34498;DHT22;20744;50.938;7.286;2022-10-16T21:43:19;14.50;99.90
34498;DHT22;20744;50.938;7.286;2022-10-16T21:45:46;14.50;99.90
34498;DHT22;20744;50.938;7.286;2022-10-16T21:48:14;14.50;99.90
34498;DHT22;20744;50.938;7.286;2022-10-16T21:50:47;14.50;99.90
34498;DHT22;20744;50.938;7.286;2022-10-16T21:53:14;14.50;99.90
34498;DHT22;20744;50.938;7.286;2022-10-16T21:55:41;14.50;99.90
34498;DHT22;20744;50.938;7.286;2022-10-16T21:58:08;14.40;99.90
34498;DHT22;20744;50.938;7.286;2022-10-16T22:00:35;14.50;99.90
34498;DHT22;20744;50.938;7.286;2022-10-16T22:03:02;14.40;99.90
34498;DHT22;20744;50.938;7.286;2022-10-16T22:05:29;14.40;99.90
34498;DHT22;20744;50.938;7.286;2022-10-16T22:07:57;14.40;99.90
34498;DHT22;20744;50.938;7.286;2022-10-16T22:10:24;14.30;99.90
34498;DHT22;20744;50.938;7.286;2022-10-16T22:12:51;14.30;99.90
34498;DHT22;20744;50.938;7.286;2022-10-16T22:15:18;14.30;99.90
34498;DHT22;20744;50.938;7.286;2022-10-16T22:17:45;14.40;99.90
34498;DHT22;20744;50.938;7.286;2022-10-16T22:20:12;14.40;99.90
34498;DHT22;20744;50.938;7.286;2022-10-16T22:22:39;14.40;99.90
34498;DHT22;20744;50.938;7.286;2022-10-16T22:25:08;14.30;99.90
34498;DHT22;20744;50.938;7.286;2022-10-16T22:27:35;14.30;99.90
34498;DHT22;20744;50.938;7.286;2022-10-16T22:30:02;14.30;99.90
34498;DHT22;20744;50.938;7.286;2022-10-16T22:32:29;14.30;99.90
34498;DHT22;20744;50.938;7.286;2022-10-16T22:34:57;14.30;99.90
34498;DHT22;20744;50.938;7.286;2022-10-16T22:37:24;14.40;99.90
34498;DHT22;20744;50.938;7.286;2022-10-16T22:39:51;14.40;99.90
34498;DHT22;20744;50.938;7.286;2022-10-16T22:42:19;14.30;99.90
34498;DHT22;20744;50.938;7.286;2022-10-16T22:44:46;14.40;99.90
34498;DHT22;20744;50.938;7.286;2022-10-16T22:47:13;14.40;99.90
34498;DHT22;20744;50.938;7.286;2022-10-16T22:49:41;14.40;99.90
34498;DHT22;20744;50.938;7.286;2022-10-16T22:52:08;14.40;99.90
34498;DHT22;20744;50.938;7.286;2022-10-16T22:54:35;14.40;99.90
34498;DHT22;20744;50.938;7.286;2022-10-16T22:57:02;14.40;99.90
34498;DHT22;20744;50.938;7.286;2022-10-16T22:59:31;14.40;99.90
34498;DHT22;20744;50.938;7.286;2022-10-16T23:01:58;14.40;99.90
34498;DHT22;20744;50.938;7.286;2022-10-16T23:04:24;14.40;99.90
34498;DHT22;20744;50.938;7.286;2022-10-16T23:06:51;14.40;99.90
34498;DHT22;20744;50.938;7.286;2022-10-16T23:09:18;14.50;99.90
34498;DHT22;20744;50.938;7.286;2022-10-16T23:11:46;14.50;99.90
34498;DHT22;20744;50.938;7.286;2022-10-16T23:14:13;14.50;99.90
34498;DHT22;20744;50.938;7.286;2022-10-16T23:16:46;14.60;99.90
34498;DHT22;20744;50.938;7.286;2022-10-16T23:19:13;14.60;99.90
34498;DHT22;20744;50.938;7.286;2022-10-16T23:21:40;14.60;99.90
34498;DHT22;20744;50.938;7.286;2022-10-16T23:24:06;14.60;99.90
34498;DHT22;20744;50.938;7.286;2022-10-16T23:26:34;14.50;99.90
34498;DHT22;20744;50.938;7.286;2022-10-16T23:29:01;14.50;99.90
34498;DHT22;20744;50.938;7.286;2022-10-16T23:31:28;14.50;99.90
34498;DHT22;20744;50.938;7.286;2022-10-16T23:33:57;14.50;99.90
34498;DHT22;20744;50.938;7.286;2022-10-16T23:36:25;14.50;99.90
34498;DHT22;20744;50.938;7.286;2022-10-16T23:38:52;14.60;99.90
34498;DHT22;20744;50.938;7.286;2022-10-16T23:41:20;14.60;99.90
34498;DHT22;20744;50.938;7.286;2022-10-16T23:43:47;14.60;99.90
34498;DHT22;20744;50.938;7.286;2022-10-16T23:46:16;14.60;99.90
34498;DHT22;20744;50.938;7.286;2022-10-16T23:48:43;14.60;99.90
34498;DHT22;20744;50.938;7.286;2022-10-16T23:51:12;14.70;99.90
34498;DHT22;20744;50.938;7.286;2022-10-16T23:53:39;14.70;99.90
34498;DHT22;20744;50.938;7.286;2022-10-16T23:56:06;14.70;99.90
34498;DHT22;20744;50.938;7.286;2022-10-16T23:58:33;14.70;99.90
